createdAt,value
2019-03-27T00:01:30.175Z,6.94
2019-03-27T00:03:58.626Z,6.92
2019-03-27T00:06:26.879Z,6.88
2019-03-27T00:08:55.113Z,6.84
2019-03-27T00:11:23.352Z,6.79
2019-03-27T00:13:51.895Z,6.72
2019-03-27T00:16:20.131Z,6.67
2019-03-27T00:18:48.358Z,6.59
2019-03-27T00:21:16.593Z,6.52
2019-03-27T00:23:44.822Z,6.40
2019-03-27T00:26:13.053Z,6.30
2019-03-27T00:28:41.280Z,6.22
2019-03-27T00:31:11.910Z,6.13
2019-03-27T00:33:39.707Z,6.07
2019-03-27T00:36:08.165Z,5.99
2019-03-27T00:38:36.632Z,5.92
2019-03-27T00:41:04.861Z,5.90
2019-03-27T00:43:33.095Z,5.92
2019-03-27T00:46:01.329Z,5.96
2019-03-27T00:48:29.567Z,5.89
2019-03-27T00:50:58.033Z,5.89
2019-03-27T00:53:26.265Z,5.86
2019-03-27T00:55:54.497Z,5.84
2019-03-27T00:58:22.970Z,5.79
2019-03-27T01:01:05.609Z,5.74
2019-03-27T01:03:33.844Z,5.66
2019-03-27T01:06:02.506Z,5.56
2019-03-27T01:08:30.743Z,5.50
2019-03-27T01:10:58.965Z,5.42
2019-03-27T01:13:27.201Z,5.35
2019-03-27T01:15:55.430Z,5.28
2019-03-27T01:18:23.888Z,5.21
2019-03-27T01:20:52.345Z,5.18
2019-03-27T01:23:20.821Z,4.96
2019-03-27T01:25:49.035Z,5.11
2019-03-27T01:28:17.269Z,5.09
2019-03-27T01:30:45.722Z,5.10
2019-03-27T01:33:14.182Z,5.11
2019-03-27T01:35:42.414Z,5.09
2019-03-27T01:38:10.651Z,5.06
2019-03-27T01:40:38.876Z,5.02
2019-03-27T01:43:07.342Z,5.00
2019-03-27T01:45:35.795Z,4.98
2019-03-27T01:48:04.018Z,4.96
2019-03-27T01:50:32.487Z,4.90
2019-03-27T01:53:00.718Z,4.86
2019-03-27T01:55:28.951Z,4.82
2019-03-27T01:57:57.401Z,4.78
2019-03-27T02:00:25.868Z,4.71
2019-03-27T02:02:54.099Z,4.66
2019-03-27T02:05:22.337Z,4.60
2019-03-27T02:07:50.561Z,4.55
2019-03-27T02:10:19.098Z,4.51
2019-03-27T02:12:47.541Z,4.48
2019-03-27T02:15:15.847Z,4.46
2019-03-27T02:17:44.142Z,4.44
2019-03-27T02:20:12.382Z,4.41
2019-03-27T02:22:40.829Z,4.39
2019-03-27T02:25:09.290Z,4.38
2019-03-27T02:27:37.519Z,4.38
2019-03-27T02:30:08.525Z,4.41
2019-03-27T02:32:36.800Z,4.42
2019-03-27T02:35:05.649Z,4.33
2019-03-27T02:37:33.891Z,4.45
2019-03-27T02:40:02.114Z,4.41
2019-03-27T02:42:30.577Z,4.41
2019-03-27T02:44:59.048Z,4.39
2019-03-27T02:47:27.499Z,4.29
2019-03-27T02:49:55.730Z,4.20
2019-03-27T02:52:23.963Z,4.20
2019-03-27T02:54:52.194Z,4.06
2019-03-27T02:57:20.425Z,4.06
2019-03-27T02:59:48.661Z,3.89
2019-03-27T03:02:16.901Z,3.89
2019-03-27T03:04:45.354Z,3.64
2019-03-27T03:07:13.594Z,3.56
2019-03-27T03:09:42.061Z,3.43
2019-03-27T03:12:10.302Z,3.43
2019-03-27T03:14:38.543Z,3.51
2019-03-27T03:17:06.776Z,3.51
2019-03-27T03:19:35.087Z,3.43
2019-03-27T03:22:03.330Z,3.41
2019-03-27T03:24:31.784Z,3.41
2019-03-27T03:27:00.033Z,3.36
2019-03-27T03:29:28.254Z,3.36
2019-03-27T03:31:56.505Z,3.31
2019-03-27T03:34:24.718Z,3.29
2019-03-27T03:36:52.961Z,3.13
2019-03-27T03:39:21.419Z,3.13
2019-03-27T03:41:49.832Z,3.17
2019-03-27T03:44:18.062Z,3.14
2019-03-27T03:46:58.847Z,3.16
2019-03-27T03:49:16.253Z,3.13
2019-03-27T03:51:44.484Z,3.13
2019-03-27T03:54:13.005Z,3.10
2019-03-27T03:56:41.515Z,2.93
2019-03-27T03:59:11.886Z,3.08
2019-03-27T04:01:41.187Z,3.02
2019-03-27T04:04:09.436Z,2.97
2019-03-27T04:06:37.885Z,2.97
2019-03-27T04:09:06.959Z,2.96
2019-03-27T04:11:35.189Z,2.91
2019-03-27T04:14:03.430Z,2.82
2019-03-27T04:16:31.653Z,2.82
2019-03-27T04:19:00.129Z,2.79
2019-03-27T04:21:28.358Z,2.84
2019-03-27T04:23:56.618Z,2.84
2019-03-27T04:26:25.051Z,2.86
2019-03-27T04:28:53.510Z,2.83
2019-03-27T04:31:21.749Z,2.82
2019-03-27T04:33:49.990Z,2.89
2019-03-27T04:36:18.238Z,2.89
2019-03-27T04:38:46.684Z,2.96
2019-03-27T04:41:14.988Z,2.81
2019-03-27T04:43:43.229Z,3.04
2019-03-27T04:46:11.471Z,3.01
2019-03-27T04:48:39.701Z,3.01
2019-03-27T04:51:07.928Z,2.88
2019-03-27T04:53:36.399Z,2.89
2019-03-27T04:56:04.645Z,2.88
2019-03-27T04:58:32.868Z,2.85
2019-03-27T05:01:01.098Z,2.82
2019-03-27T05:03:29.565Z,2.82
2019-03-27T05:05:57.796Z,2.75
2019-03-27T05:08:26.035Z,2.75
2019-03-27T05:10:54.268Z,2.74
2019-03-27T05:13:22.733Z,2.67
2019-03-27T05:15:50.964Z,2.67
2019-03-27T05:18:19.204Z,2.61
2019-03-27T05:20:47.666Z,2.59
2019-03-27T05:23:16.126Z,2.59
2019-03-27T05:25:44.351Z,2.58
2019-03-27T05:28:12.817Z,2.55
2019-03-27T05:30:41.271Z,2.55
2019-03-27T05:33:09.504Z,2.55
2019-03-27T05:35:37.744Z,2.52
2019-03-27T05:38:05.973Z,2.52
2019-03-27T05:40:34.439Z,2.53
2019-03-27T05:43:02.669Z,2.52
2019-03-27T05:45:30.902Z,2.50
2019-03-27T05:48:00.099Z,2.55
2019-03-27T05:50:28.688Z,2.58
2019-03-27T05:52:56.917Z,2.58
2019-03-27T05:55:26.665Z,2.65
2019-03-27T05:57:54.975Z,2.65
2019-03-27T06:00:23.219Z,2.69
2019-03-27T06:02:51.446Z,2.73
2019-03-27T06:05:19.754Z,2.75
2019-03-27T06:07:47.991Z,2.80
2019-03-27T06:10:16.594Z,2.80
2019-03-27T06:12:44.816Z,2.91
2019-03-27T06:15:13.129Z,2.96
2019-03-27T06:17:41.370Z,3.03
2019-03-27T06:20:09.786Z,3.02
2019-03-27T06:22:38.052Z,3.02
2019-03-27T06:25:07.586Z,3.16
2019-03-27T06:27:36.054Z,3.19
2019-03-27T06:30:05.266Z,3.39
2019-03-27T06:32:33.502Z,3.39
2019-03-27T06:35:01.974Z,3.61
2019-03-27T06:37:30.208Z,3.73
2019-03-27T06:39:58.449Z,3.73
2019-03-27T06:42:26.689Z,3.98
2019-03-27T06:44:54.927Z,3.98
2019-03-27T06:47:23.379Z,4.09
2019-03-27T06:49:51.847Z,4.19
2019-03-27T06:52:20.350Z,4.30
2019-03-27T06:54:48.553Z,4.50
2019-03-27T06:57:17.022Z,4.57
2019-03-27T06:59:45.489Z,4.57
2019-03-27T07:02:13.713Z,4.59
2019-03-27T07:04:42.186Z,4.81
2019-03-27T07:07:10.423Z,4.92
2019-03-27T07:09:38.678Z,5.07
2019-03-27T07:12:20.119Z,5.17
2019-03-27T07:14:37.086Z,5.30
2019-03-27T07:17:05.365Z,5.56
2019-03-27T07:19:33.847Z,5.56
2019-03-27T07:22:02.315Z,5.69
2019-03-27T07:24:30.544Z,5.82
2019-03-27T07:26:59.019Z,5.96
2019-03-27T07:29:27.254Z,6.10
2019-03-27T07:31:55.729Z,6.23
2019-03-27T07:34:24.196Z,6.37
2019-03-27T07:36:56.038Z,6.50
2019-03-27T07:39:22.613Z,6.66
2019-03-27T07:41:51.127Z,6.79
2019-03-27T07:44:19.576Z,6.89
2019-03-27T07:46:47.838Z,6.99
2019-03-27T07:49:16.089Z,7.08
2019-03-27T07:51:44.351Z,7.17
2019-03-27T07:54:12.921Z,7.28
2019-03-27T07:56:41.160Z,7.38
2019-03-27T07:59:09.623Z,7.34
2019-03-27T08:01:37.866Z,7.58
2019-03-27T08:04:06.101Z,7.66
2019-03-27T08:06:34.339Z,7.74
2019-03-27T08:09:02.571Z,7.84
2019-03-27T08:11:30.909Z,7.98
2019-03-27T08:13:59.209Z,8.16
2019-03-27T08:16:27.456Z,8.32
2019-03-27T08:19:06.975Z,8.45
2019-03-27T08:21:25.667Z,8.49
2019-03-27T08:23:53.906Z,8.51
2019-03-27T08:26:22.147Z,8.54
2019-03-27T08:28:50.378Z,8.60
2019-03-27T08:31:18.611Z,8.64
2019-03-27T08:33:46.855Z,8.70
2019-03-27T08:36:15.374Z,8.75
2019-03-27T08:38:43.970Z,8.80
2019-03-27T08:41:12.227Z,8.74
2019-03-27T08:43:40.472Z,9.04
2019-03-27T08:46:08.996Z,9.14
2019-03-27T08:48:39.177Z,9.17
2019-03-27T08:51:07.585Z,9.26
2019-03-27T08:53:36.078Z,9.35
2019-03-27T08:56:04.311Z,9.38
2019-03-27T08:58:32.548Z,9.39
2019-03-27T09:01:01.128Z,9.47
2019-03-27T09:03:29.616Z,9.50
2019-03-27T09:05:58.492Z,9.52
2019-03-27T09:08:26.722Z,9.57
2019-03-27T09:10:55.197Z,9.62
2019-03-27T09:13:23.430Z,9.72
2019-03-27T09:15:51.668Z,9.85
2019-03-27T09:18:19.903Z,9.98
2019-03-27T09:20:48.371Z,10.08
2019-03-27T09:23:16.834Z,10.16
2019-03-27T09:25:45.327Z,10.26
2019-03-27T09:28:13.565Z,10.29
2019-03-27T09:30:41.808Z,10.33
2019-03-27T09:33:10.286Z,10.38
2019-03-27T09:35:38.842Z,10.38
2019-03-27T09:38:07.079Z,10.38
2019-03-27T09:40:35.322Z,10.39
2019-03-27T09:43:03.566Z,10.39
2019-03-27T09:45:31.817Z,10.37
2019-03-27T09:48:00.335Z,10.40
2019-03-27T09:50:28.916Z,10.40
2019-03-27T09:52:57.153Z,10.30
2019-03-27T09:55:25.677Z,10.15
2019-03-27T09:57:54.163Z,10.17
2019-03-27T10:00:48.330Z,10.11
2019-03-27T10:03:16.859Z,10.17
2019-03-27T10:05:45.337Z,10.11
2019-03-27T10:08:13.566Z,10.15
2019-03-27T10:10:41.806Z,10.19
2019-03-27T10:13:10.044Z,10.30
2019-03-27T10:15:38.294Z,10.28
2019-03-27T10:18:06.752Z,10.42
2019-03-27T10:20:35.233Z,10.55
2019-03-27T10:23:03.472Z,10.66
2019-03-27T10:25:31.713Z,10.81
2019-03-27T10:27:59.952Z,10.92
2019-03-27T10:30:28.205Z,11.07
2019-03-27T10:32:56.445Z,11.20
2019-03-27T10:35:24.722Z,11.25
2019-03-27T10:37:53.217Z,11.32
2019-03-27T10:40:21.466Z,11.37
2019-03-27T10:42:49.711Z,11.31
2019-03-27T10:45:18.360Z,11.19
2019-03-27T10:47:46.840Z,11.13
2019-03-27T10:50:17.933Z,11.03
2019-03-27T10:52:45.717Z,10.99
2019-03-27T10:55:14.124Z,10.96
2019-03-27T10:57:42.369Z,11.05
2019-03-27T11:00:11.080Z,11.06
2019-03-27T11:02:39.551Z,11.16
2019-03-27T11:05:07.925Z,11.30
2019-03-27T11:07:36.206Z,11.44
2019-03-27T11:10:06.815Z,11.61
2019-03-27T11:12:35.230Z,11.80
2019-03-27T11:15:05.256Z,11.94
2019-03-27T11:17:33.505Z,12.09
2019-03-27T11:20:01.740Z,12.21
2019-03-27T11:22:30.220Z,12.31
2019-03-27T11:24:58.460Z,12.37
2019-03-27T11:27:26.955Z,12.22
2019-03-27T11:29:55.418Z,12.25
2019-03-27T11:32:23.890Z,12.27
2019-03-27T11:34:52.136Z,12.30
2019-03-27T11:37:20.381Z,12.35
2019-03-27T11:39:48.613Z,12.35
2019-03-27T11:42:16.857Z,12.51
2019-03-27T11:44:45.098Z,12.65
2019-03-27T11:47:13.343Z,12.55
2019-03-27T11:49:41.584Z,12.55
2019-03-27T11:52:09.832Z,12.62
2019-03-27T11:54:38.073Z,12.67
2019-03-27T11:57:07.141Z,12.84
2019-03-27T11:59:35.379Z,12.98
2019-03-27T12:02:03.628Z,13.07
2019-03-27T12:04:31.867Z,13.10
2019-03-27T12:07:00.114Z,13.07
2019-03-27T12:09:28.573Z,12.92
2019-03-27T12:11:56.820Z,12.85
2019-03-27T12:14:25.329Z,12.88
2019-03-27T12:16:53.808Z,12.89
2019-03-27T12:19:22.283Z,12.95
2019-03-27T12:21:50.768Z,12.98
2019-03-27T12:24:19.254Z,12.97
2019-03-27T12:26:47.496Z,12.85
2019-03-27T12:29:18.156Z,12.87
2019-03-27T12:31:45.791Z,12.72
2019-03-27T12:34:14.029Z,12.68
2019-03-27T12:36:42.501Z,12.66
2019-03-27T12:39:10.778Z,12.65
2019-03-27T12:41:39.030Z,12.62
2019-03-27T12:44:07.265Z,12.52
2019-03-27T12:46:35.509Z,12.47
2019-03-27T12:49:03.739Z,12.53
2019-03-27T12:51:31.985Z,12.63
2019-03-27T12:54:00.530Z,12.73
2019-03-27T12:56:28.774Z,12.64
2019-03-27T12:58:57.006Z,12.63
2019-03-27T13:01:25.479Z,12.73
2019-03-27T13:03:53.932Z,12.68
2019-03-27T13:06:22.183Z,12.77
2019-03-27T13:08:50.407Z,12.88
2019-03-27T13:11:19.179Z,12.99
2019-03-27T13:13:47.739Z,13.06
2019-03-27T13:16:15.980Z,13.01
2019-03-27T13:18:44.218Z,13.16
2019-03-27T13:21:25.357Z,13.29
2019-03-27T13:23:42.412Z,13.35
2019-03-27T13:26:10.895Z,13.41
2019-03-27T13:28:48.653Z,13.35
2019-03-27T13:31:09.463Z,13.20
2019-03-27T13:33:37.984Z,13.21
2019-03-27T13:36:07.746Z,13.21
2019-03-27T13:38:36.547Z,13.18
2019-03-27T13:41:04.785Z,13.16
2019-03-27T13:43:33.029Z,13.21
2019-03-27T13:46:01.265Z,13.05
2019-03-27T13:48:29.510Z,13.15
2019-03-27T13:50:57.738Z,13.24
2019-03-27T13:53:25.983Z,13.30
2019-03-27T13:55:54.435Z,13.30
2019-03-27T13:58:22.910Z,13.40
2019-03-27T14:00:51.140Z,13.39
2019-03-27T14:03:19.665Z,13.40
2019-03-27T14:05:48.119Z,13.36
2019-03-27T14:08:16.379Z,13.30
2019-03-27T14:10:44.817Z,13.42
2019-03-27T14:13:13.144Z,13.55
2019-03-27T14:15:41.600Z,13.62
2019-03-27T14:18:10.148Z,13.65
2019-03-27T14:20:38.381Z,13.57
2019-03-27T14:23:07.013Z,13.35
2019-03-27T14:25:35.490Z,13.31
2019-03-27T14:28:04.178Z,13.22
2019-03-27T14:30:50.028Z,13.04
2019-03-27T14:33:18.638Z,12.97
2019-03-27T14:35:47.131Z,12.91
2019-03-27T14:38:15.823Z,12.91
2019-03-27T14:40:44.304Z,12.79
2019-03-27T14:43:12.807Z,12.80
2019-03-27T14:45:41.366Z,12.76
2019-03-27T14:48:09.852Z,12.88
2019-03-27T14:50:38.341Z,12.88
2019-03-27T14:53:06.875Z,12.88
2019-03-27T14:55:35.108Z,12.92
2019-03-27T14:58:03.359Z,12.95
2019-03-27T15:00:31.589Z,13.00
2019-03-27T15:03:00.130Z,12.93
2019-03-27T15:05:28.378Z,12.85
2019-03-27T15:07:56.893Z,12.84
2019-03-27T15:10:25.372Z,13.03
2019-03-27T15:12:53.851Z,13.20
2019-03-27T15:15:22.085Z,13.27
2019-03-27T15:17:50.331Z,13.32
2019-03-27T15:20:18.892Z,13.31
2019-03-27T15:22:47.142Z,13.29
2019-03-27T15:25:15.360Z,13.29
2019-03-27T15:27:43.599Z,13.32
2019-03-27T15:30:13.303Z,13.47
2019-03-27T15:32:41.817Z,13.54
2019-03-27T15:35:10.417Z,13.61
2019-03-27T15:37:38.978Z,13.59
2019-03-27T15:40:08.093Z,13.58
2019-03-27T15:42:37.352Z,13.55
2019-03-27T15:45:08.990Z,13.46
2019-03-27T15:47:37.459Z,13.40
2019-03-27T15:50:06.381Z,13.40
2019-03-27T15:52:36.813Z,13.43
2019-03-27T15:55:05.647Z,13.45
2019-03-27T15:57:34.285Z,13.47
2019-03-27T16:00:03.057Z,13.43
2019-03-27T16:02:31.324Z,13.39
2019-03-27T16:04:59.791Z,13.42
2019-03-27T16:07:31.093Z,13.35
2019-03-27T16:09:58.448Z,13.19
2019-03-27T16:12:26.961Z,13.17
2019-03-27T16:14:55.186Z,13.17
2019-03-27T16:17:23.811Z,13.18
2019-03-27T16:19:52.294Z,13.17
2019-03-27T16:22:20.537Z,13.30
2019-03-27T16:24:49.260Z,13.43
2019-03-27T16:27:17.574Z,13.43
2019-03-27T16:29:46.036Z,13.44
2019-03-27T16:32:15.626Z,13.45
2019-03-27T16:34:44.213Z,13.34
2019-03-27T16:37:12.872Z,13.22
2019-03-27T16:39:41.377Z,13.14
2019-03-27T16:42:09.621Z,13.21
2019-03-27T16:44:37.946Z,13.29
2019-03-27T16:47:06.195Z,13.33
2019-03-27T16:49:34.423Z,13.31
2019-03-27T16:52:02.666Z,13.28
2019-03-27T16:54:30.898Z,13.27
2019-03-27T16:56:59.420Z,13.26
2019-03-27T16:59:27.876Z,13.27
2019-03-27T17:01:56.347Z,13.27
2019-03-27T17:04:24.826Z,13.21
2019-03-27T17:06:53.286Z,13.09
2019-03-27T17:09:21.539Z,12.95
2019-03-27T17:11:49.764Z,12.78
2019-03-27T17:14:18.005Z,12.63
2019-03-27T17:16:46.254Z,12.49
2019-03-27T17:19:14.500Z,12.36
2019-03-27T17:21:42.745Z,12.22
2019-03-27T17:24:11.221Z,12.06
2019-03-27T17:26:39.490Z,11.91
2019-03-27T17:29:07.699Z,11.77
2019-03-27T17:31:36.172Z,11.64
2019-03-27T17:34:04.678Z,11.50
2019-03-27T17:36:32.941Z,11.37
2019-03-27T17:39:01.674Z,11.25
2019-03-27T17:41:29.919Z,11.12
2019-03-27T17:43:58.437Z,10.99
2019-03-27T17:46:26.665Z,10.85
2019-03-27T17:48:54.910Z,10.73
2019-03-27T17:51:23.470Z,10.63
2019-03-27T17:53:51.714Z,10.55
2019-03-27T17:56:20.231Z,10.45
2019-03-27T17:58:48.714Z,10.36
2019-03-27T18:03:46.241Z,10.22
2019-03-27T18:06:14.488Z,10.16
2019-03-27T18:08:42.911Z,10.12
2019-03-27T18:11:11.456Z,10.05
2019-03-27T18:13:39.704Z,10.00
2019-03-27T18:16:08.171Z,9.94
2019-03-27T18:18:36.416Z,9.85
2019-03-27T18:21:04.888Z,9.77
2019-03-27T18:23:45.137Z,9.69
2019-03-27T18:26:03.080Z,9.60
2019-03-27T18:28:31.322Z,9.49
2019-03-27T18:30:59.786Z,9.37
2019-03-27T18:33:28.098Z,9.30
2019-03-27T18:35:56.562Z,9.18
2019-03-27T18:38:24.796Z,9.08
2019-03-27T18:40:53.030Z,8.98
2019-03-27T18:43:21.494Z,8.91
2019-03-27T18:45:49.740Z,8.82
2019-03-27T18:48:17.963Z,8.76
2019-03-27T18:50:46.203Z,8.68
2019-03-27T18:53:14.438Z,8.63
2019-03-27T18:55:42.679Z,8.59
2019-03-27T18:58:11.142Z,8.57
2019-03-27T19:00:39.629Z,8.54
2019-03-27T19:03:08.160Z,8.50
2019-03-27T19:05:36.404Z,8.43
2019-03-27T19:08:04.631Z,8.34
2019-03-27T19:10:32.868Z,8.26
2019-03-27T19:13:01.357Z,8.17
2019-03-27T19:15:29.599Z,8.08
2019-03-27T19:17:58.166Z,8.00
2019-03-27T19:20:26.594Z,7.94
2019-03-27T19:22:54.836Z,7.89
2019-03-27T19:25:23.312Z,7.82
2019-03-27T19:27:51.543Z,7.76
2019-03-27T19:30:19.783Z,7.69
2019-03-27T19:32:48.286Z,7.63
2019-03-27T19:35:16.529Z,7.57
2019-03-27T19:37:44.763Z,7.55
2019-03-27T19:40:13.182Z,7.47
2019-03-27T19:42:41.407Z,7.46
2019-03-27T19:45:09.657Z,7.41
2019-03-27T19:47:37.890Z,7.34
2019-03-27T19:50:06.905Z,7.30
2019-03-27T19:52:35.142Z,7.23
2019-03-27T19:55:03.750Z,7.15
2019-03-27T19:57:32.292Z,7.09
2019-03-27T20:00:00.525Z,7.02
2019-03-27T20:02:29.081Z,6.99
2019-03-27T20:04:57.513Z,6.95
2019-03-27T20:07:35.963Z,6.91
2019-03-27T20:09:56.165Z,6.87
2019-03-27T20:12:24.401Z,6.82
2019-03-27T20:14:52.867Z,6.79
2019-03-27T20:17:21.364Z,6.75
2019-03-27T20:19:49.827Z,6.72
2019-03-27T20:22:18.079Z,6.68
2019-03-27T20:24:46.321Z,6.64
2019-03-27T20:27:14.560Z,6.58
2019-03-27T20:29:42.797Z,6.56
2019-03-27T20:32:11.038Z,6.52
2019-03-27T20:34:39.500Z,6.53
2019-03-27T20:37:07.749Z,6.48
2019-03-27T20:39:36.206Z,6.47
2019-03-27T20:42:04.451Z,6.43
2019-03-27T20:44:32.915Z,6.40
2019-03-27T20:47:01.387Z,6.34
2019-03-27T20:49:29.855Z,6.32
2019-03-27T20:51:58.090Z,6.30
2019-03-27T20:54:26.554Z,6.27
2019-03-27T20:56:54.799Z,6.22
2019-03-27T20:59:23.254Z,6.19
2019-03-27T21:01:51.728Z,6.17
2019-03-27T21:04:19.965Z,6.15
2019-03-27T21:06:48.206Z,6.12
2019-03-27T21:09:16.491Z,6.08
2019-03-27T21:11:44.674Z,6.06
2019-03-27T21:14:12.945Z,6.05
2019-03-27T21:16:41.376Z,6.02
2019-03-27T21:19:09.653Z,5.99
2019-03-27T21:21:38.121Z,5.96
2019-03-27T21:24:06.358Z,5.96
2019-03-27T21:26:34.600Z,5.93
2019-03-27T21:29:03.074Z,5.95
2019-03-27T21:31:31.307Z,5.92
2019-03-27T21:33:59.782Z,5.89
2019-03-27T21:36:28.301Z,5.89
2019-03-27T21:38:56.778Z,5.87
2019-03-27T21:41:25.009Z,5.88
2019-03-27T21:43:53.262Z,5.86
2019-03-27T21:46:21.507Z,5.84
2019-03-27T21:48:49.749Z,5.82
2019-03-27T21:51:17.971Z,5.80
2019-03-27T21:53:50.578Z,5.78
2019-03-27T21:56:16.416Z,5.77
2019-03-27T21:58:44.659Z,5.77
2019-03-27T22:01:12.886Z,5.78
2019-03-27T22:03:41.128Z,5.79
2019-03-27T22:06:09.362Z,5.81
2019-03-27T22:08:37.608Z,5.81
2019-03-27T22:11:05.843Z,5.85
2019-03-27T22:13:34.085Z,5.89
2019-03-27T22:16:02.324Z,5.89
2019-03-27T22:18:30.786Z,5.91
2019-03-27T22:20:59.027Z,5.91
2019-03-27T22:23:27.261Z,5.92
2019-03-27T22:25:55.499Z,5.94
2019-03-27T22:28:23.959Z,5.94
2019-03-27T22:30:52.205Z,5.93
2019-03-27T22:33:20.662Z,5.93
2019-03-27T22:35:48.901Z,5.93
2019-03-27T22:38:17.134Z,5.96
2019-03-27T22:40:45.377Z,5.94
2019-03-27T22:43:13.615Z,5.93
2019-03-27T22:45:41.851Z,5.92
2019-03-27T22:48:10.079Z,5.86
2019-03-27T22:50:38.327Z,5.83
2019-03-27T22:53:06.563Z,5.81
2019-03-27T22:55:48.631Z,5.83
2019-03-27T22:58:04.760Z,5.86
2019-03-27T23:00:40.769Z,5.93
2019-03-27T23:03:18.308Z,5.98
2019-03-27T23:05:38.968Z,5.99
2019-03-27T23:08:07.197Z,6.06
2019-03-27T23:10:35.446Z,6.21
2019-03-27T23:13:03.678Z,6.30
2019-03-27T23:15:32.010Z,6.37
2019-03-27T23:18:00.238Z,6.47
2019-03-27T23:20:28.701Z,6.57
2019-03-27T23:22:56.943Z,6.63
2019-03-27T23:25:25.173Z,6.74
2019-03-27T23:27:53.642Z,6.79
2019-03-27T23:30:21.874Z,6.80
2019-03-27T23:32:50.181Z,6.84
2019-03-27T23:35:18.488Z,6.83
2019-03-27T23:37:46.887Z,6.86
2019-03-27T23:40:15.183Z,6.89
2019-03-27T23:42:43.659Z,6.90
2019-03-27T23:45:13.690Z,6.91
2019-03-27T23:47:41.937Z,6.90
2019-03-27T23:50:10.323Z,6.92
2019-03-27T23:52:38.553Z,6.90
2019-03-27T23:55:06.957Z,6.87
2019-03-27T23:57:35.421Z,6.85
